sensor_id;sensor_type;location;lat;lon;timestamp;temperature;humidity
48019;DHT22;33786;48.690;9.562;2022-08-19T00:01:58;20.40;99.90
48019;DHT22;33786;48.690;9.562;2022-08-19T00:04:27;20.30;99.90
48019;DHT22;33786;48.690;9.562;2022-08-19T00:06:54;20.30;99.90
48019;DHT22;33786;48.690;9.562;2022-08-19T00:09:22;20.20;99.90
48019;DHT22;33786;48.690;9.562;2022-08-19T00:11:49;20.30;99.90
48019;DHT22;33786;48.690;9.562;2022-08-19T00:14:16;20.30;99.90
48019;DHT22;33786;48.690;9.562;2022-08-19T00:16:44;20.20;99.90
48019;DHT22;33786;48.690;9.562;2022-08-19T00:19:11;20.10;99.90
48019;DHT22;33786;48.690;9.562;2022-08-19T00:21:38;20.10;99.90
48019;DHT22;33786;48.690;9.562;2022-08-19T00:24:07;20.10;99.90
48019;DHT22;33786;48.690;9.562;2022-08-19T00:26:35;20.10;99.90
48019;DHT22;33786;48.690;9.562;2022-08-19T00:29:03;20.00;99.90
48019;DHT22;33786;48.690;9.562;2022-08-19T00:31:29;20.00;99.90
48019;DHT22;33786;48.690;9.562;2022-08-19T00:33:57;20.00;99.90
48019;DHT22;33786;48.690;9.562;2022-08-19T00:36:24;19.90;99.90
48019;DHT22;33786;48.690;9.562;2022-08-19T00:38:51;19.90;99.90
48019;DHT22;33786;48.690;9.562;2022-08-19T00:41:19;20.00;99.90
48019;DHT22;33786;48.690;9.562;2022-08-19T00:43:57;19.90;99.90
48019;DHT22;33786;48.690;9.562;2022-08-19T00:46:24;20.00;99.90
48019;DHT22;33786;48.690;9.562;2022-08-19T00:48:51;19.90;99.90
48019;DHT22;33786;48.690;9.562;2022-08-19T00:51:18;19.90;99.90
48019;DHT22;33786;48.690;9.562;2022-08-19T00:53:44;19.90;99.90
48019;DHT22;33786;48.690;9.562;2022-08-19T00:56:11;19.90;99.90
48019;DHT22;33786;48.690;9.562;2022-08-19T00:58:38;19.80;99.90
48019;DHT22;33786;48.690;9.562;2022-08-19T01:01:06;19.80;99.90
48019;DHT22;33786;48.690;9.562;2022-08-19T01:03:34;19.80;99.90
48019;DHT22;33786;48.690;9.562;2022-08-19T01:06:21;19.70;99.90
48019;DHT22;33786;48.690;9.562;2022-08-19T01:08:47;19.70;99.90
48019;DHT22;33786;48.690;9.562;2022-08-19T01:11:16;19.80;99.90
48019;DHT22;33786;48.690;9.562;2022-08-19T01:13:43;19.70;99.90
48019;DHT22;33786;48.690;9.562;2022-08-19T01:16:15;19.70;99.90
48019;DHT22;33786;48.690;9.562;2022-08-19T01:18:42;19.70;99.90
48019;DHT22;33786;48.690;9.562;2022-08-19T01:21:53;19.70;99.90
48019;DHT22;33786;48.690;9.562;2022-08-19T01:23:59;19.70;99.90
48019;DHT22;33786;48.690;9.562;2022-08-19T01:26:26;19.60;99.90
48019;DHT22;33786;48.690;9.562;2022-08-19T01:28:54;19.60;99.90
48019;DHT22;33786;48.690;9.562;2022-08-19T01:31:26;19.60;99.90
48019;DHT22;33786;48.690;9.562;2022-08-19T01:33:58;19.60;99.90
48019;DHT22;33786;48.690;9.562;2022-08-19T01:36:33;19.50;99.90
48019;DHT22;33786;48.690;9.562;2022-08-19T01:39:01;19.50;99.90
48019;DHT22;33786;48.690;9.562;2022-08-19T01:41:29;19.50;99.90
48019;DHT22;33786;48.690;9.562;2022-08-19T01:43:55;19.50;99.90
48019;DHT22;33786;48.690;9.562;2022-08-19T01:46:42;19.40;99.90
48019;DHT22;33786;48.690;9.562;2022-08-19T01:49:10;19.50;99.90
48019;DHT22;33786;48.690;9.562;2022-08-19T01:51:37;19.40;99.90
48019;DHT22;33786;48.690;9.562;2022-08-19T01:54:06;19.40;99.90
48019;DHT22;33786;48.690;9.562;2022-08-19T01:56:33;19.40;99.90
48019;DHT22;33786;48.690;9.562;2022-08-19T01:59:02;19.30;99.90
48019;DHT22;33786;48.690;9.562;2022-08-19T02:01:29;19.30;99.90
48019;DHT22;33786;48.690;9.562;2022-08-19T02:03:58;19.20;99.90
48019;DHT22;33786;48.690;9.562;2022-08-19T02:06:27;19.20;99.90
48019;DHT22;33786;48.690;9.562;2022-08-19T02:08:54;19.10;99.90
48019;DHT22;33786;48.690;9.562;2022-08-19T02:11:32;19.10;99.90
48019;DHT22;33786;48.690;9.562;2022-08-19T02:14:00;19.00;99.90
48019;DHT22;33786;48.690;9.562;2022-08-19T02:16:28;19.00;99.90
48019;DHT22;33786;48.690;9.562;2022-08-19T02:18:55;19.00;99.90
48019;DHT22;33786;48.690;9.562;2022-08-19T02:21:23;19.00;99.90
48019;DHT22;33786;48.690;9.562;2022-08-19T02:23:50;19.00;99.90
48019;DHT22;33786;48.690;9.562;2022-08-19T02:26:17;19.00;99.90
48019;DHT22;33786;48.690;9.562;2022-08-19T02:28:45;19.00;99.90
48019;DHT22;33786;48.690;9.562;2022-08-19T02:31:12;19.00;99.90
48019;DHT22;33786;48.690;9.562;2022-08-19T02:33:41;19.00;99.90
48019;DHT22;33786;48.690;9.562;2022-08-19T02:36:08;19.00;99.90
48019;DHT22;33786;48.690;9.562;2022-08-19T02:38:35;19.00;99.90
48019;DHT22;33786;48.690;9.562;2022-08-19T02:41:07;19.10;99.90
48019;DHT22;33786;48.690;9.562;2022-08-19T02:43:37;19.00;99.90
48019;DHT22;33786;48.690;9.562;2022-08-19T02:48:48;19.00;99.90
48019;DHT22;33786;48.690;9.562;2022-08-19T02:51:18;19.00;99.90
48019;DHT22;33786;48.690;9.562;2022-08-19T02:53:45;19.00;99.90
48019;DHT22;33786;48.690;9.562;2022-08-19T02:56:12;19.00;99.90
48019;DHT22;33786;48.690;9.562;2022-08-19T02:58:39;19.00;99.90
48019;DHT22;33786;48.690;9.562;2022-08-19T03:01:06;19.00;99.90
48019;DHT22;33786;48.690;9.562;2022-08-19T03:03:33;19.00;99.90
48019;DHT22;33786;48.690;9.562;2022-08-19T03:06:07;19.00;99.90
48019;DHT22;33786;48.690;9.562;2022-08-19T03:08:35;18.90;99.90
48019;DHT22;33786;48.690;9.562;2022-08-19T03:11:01;18.90;99.90
48019;DHT22;33786;48.690;9.562;2022-08-19T03:13:28;18.80;99.90
48019;DHT22;33786;48.690;9.562;2022-08-19T03:15:55;18.80;99.90
48019;DHT22;33786;48.690;9.562;2022-08-19T03:18:22;18.80;99.90
48019;DHT22;33786;48.690;9.562;2022-08-19T03:20:49;18.80;99.90
48019;DHT22;33786;48.690;9.562;2022-08-19T03:23:16;18.80;99.90
48019;DHT22;33786;48.690;9.562;2022-08-19T03:25:45;18.80;99.90
48019;DHT22;33786;48.690;9.562;2022-08-19T03:28:23;18.80;99.90
48019;DHT22;33786;48.690;9.562;2022-08-19T03:34:06;18.80;99.90
48019;DHT22;33786;48.690;9.562;2022-08-19T03:36:33;18.80;99.90
48019;DHT22;33786;48.690;9.562;2022-08-19T03:39:00;18.80;99.90
48019;DHT22;33786;48.690;9.562;2022-08-19T03:41:28;18.70;99.90
48019;DHT22;33786;48.690;9.562;2022-08-19T03:44:15;18.70;99.90
48019;DHT22;33786;48.690;9.562;2022-08-19T03:46:44;18.70;99.90
48019;DHT22;33786;48.690;9.562;2022-08-19T03:49:11;18.60;99.90
48019;DHT22;33786;48.690;9.562;2022-08-19T03:51:40;18.60;99.90
48019;DHT22;33786;48.690;9.562;2022-08-19T03:54:08;18.60;99.90
48019;DHT22;33786;48.690;9.562;2022-08-19T03:56:36;18.60;99.90
48019;DHT22;33786;48.690;9.562;2022-08-19T03:59:03;18.70;99.90
48019;DHT22;33786;48.690;9.562;2022-08-19T04:01:30;18.70;99.90
48019;DHT22;33786;48.690;9.562;2022-08-19T04:04:01;18.80;99.90
48019;DHT22;33786;48.690;9.562;2022-08-19T04:06:31;18.80;99.90
48019;DHT22;33786;48.690;9.562;2022-08-19T04:08:58;18.80;99.90
48019;DHT22;33786;48.690;9.562;2022-08-19T04:11:28;18.80;99.90
48019;DHT22;33786;48.690;9.562;2022-08-19T04:14:10;18.90;99.90
48019;DHT22;33786;48.690;9.562;2022-08-19T04:16:37;19.00;99.90
48019;DHT22;33786;48.690;9.562;2022-08-19T04:19:04;18.90;99.90
48019;DHT22;33786;48.690;9.562;2022-08-19T04:21:31;18.90;99.90
48019;DHT22;33786;48.690;9.562;2022-08-19T04:23:58;18.80;99.90
48019;DHT22;33786;48.690;9.562;2022-08-19T04:26:26;18.80;99.90
48019;DHT22;33786;48.690;9.562;2022-08-19T04:28:53;18.70;99.90
48019;DHT22;33786;48.690;9.562;2022-08-19T04:31:21;18.70;99.90
48019;DHT22;33786;48.690;9.562;2022-08-19T04:33:48;18.70;99.90
48019;DHT22;33786;48.690;9.562;2022-08-19T04:36:16;18.90;99.90
48019;DHT22;33786;48.690;9.562;2022-08-19T04:38:49;19.00;99.90
48019;DHT22;33786;48.690;9.562;2022-08-19T04:41:16;19.10;99.90
48019;DHT22;33786;48.690;9.562;2022-08-19T04:44:01;19.10;99.90
48019;DHT22;33786;48.690;9.562;2022-08-19T04:46:30;19.10;99.90
48019;DHT22;33786;48.690;9.562;2022-08-19T04:49:17;19.10;99.90
48019;DHT22;33786;48.690;9.562;2022-08-19T04:51:45;19.20;99.90
48019;DHT22;33786;48.690;9.562;2022-08-19T04:54:14;19.20;99.90
48019;DHT22;33786;48.690;9.562;2022-08-19T04:56:54;19.30;99.90
48019;DHT22;33786;48.690;9.562;2022-08-19T04:59:21;19.30;99.90
48019;DHT22;33786;48.690;9.562;2022-08-19T05:01:47;19.30;99.90
48019;DHT22;33786;48.690;9.562;2022-08-19T05:04:19;19.30;99.90
48019;DHT22;33786;48.690;9.562;2022-08-19T05:06:48;19.20;99.90
48019;DHT22;33786;48.690;9.562;2022-08-19T05:09:15;19.20;99.90
48019;DHT22;33786;48.690;9.562;2022-08-19T05:11:42;19.30;99.90
48019;DHT22;33786;48.690;9.562;2022-08-19T05:14:10;19.30;99.90
48019;DHT22;33786;48.690;9.562;2022-08-19T05:16:39;19.20;99.90
48019;DHT22;33786;48.690;9.562;2022-08-19T05:19:06;19.40;99.90
48019;DHT22;33786;48.690;9.562;2022-08-19T05:21:51;19.30;99.90
48019;DHT22;33786;48.690;9.562;2022-08-19T05:24:37;19.30;99.90
48019;DHT22;33786;48.690;9.562;2022-08-19T05:27:22;19.30;99.90
48019;DHT22;33786;48.690;9.562;2022-08-19T05:29:48;19.30;99.90
48019;DHT22;33786;48.690;9.562;2022-08-19T05:32:15;19.30;99.90
48019;DHT22;33786;48.690;9.562;2022-08-19T05:34:42;19.30;99.90
48019;DHT22;33786;48.690;9.562;2022-08-19T05:37:09;19.20;99.90
48019;DHT22;33786;48.690;9.562;2022-08-19T05:39:36;19.10;99.90
48019;DHT22;33786;48.690;9.562;2022-08-19T05:42:05;19.20;99.90
48019;DHT22;33786;48.690;9.562;2022-08-19T05:44:34;19.20;99.90
48019;DHT22;33786;48.690;9.562;2022-08-19T05:47:02;19.20;99.90
48019;DHT22;33786;48.690;9.562;2022-08-19T05:49:29;19.20;99.90
48019;DHT22;33786;48.690;9.562;2022-08-19T05:51:56;19.20;99.90
48019;DHT22;33786;48.690;9.562;2022-08-19T05:54:23;19.30;99.90
48019;DHT22;33786;48.690;9.562;2022-08-19T05:56:51;19.30;99.90
48019;DHT22;33786;48.690;9.562;2022-08-19T05:59:19;19.30;99.90
48019;DHT22;33786;48.690;9.562;2022-08-19T06:01:51;19.40;99.90
48019;DHT22;33786;48.690;9.562;2022-08-19T06:04:18;19.30;99.90
48019;DHT22;33786;48.690;9.562;2022-08-19T06:06:46;19.40;99.90
48019;DHT22;33786;48.690;9.562;2022-08-19T06:09:13;19.40;99.90
48019;DHT22;33786;48.690;9.562;2022-08-19T06:11:52;19.50;99.90
48019;DHT22;33786;48.690;9.562;2022-08-19T06:14:23;19.50;99.90
48019;DHT22;33786;48.690;9.562;2022-08-19T06:16:53;19.50;99.90
48019;DHT22;33786;48.690;9.562;2022-08-19T06:19:21;19.50;99.90
48019;DHT22;33786;48.690;9.562;2022-08-19T06:21:48;19.50;99.90
48019;DHT22;33786;48.690;9.562;2022-08-19T06:24:18;19.50;99.90
48019;DHT22;33786;48.690;9.562;2022-08-19T06:26:46;19.60;99.90
48019;DHT22;33786;48.690;9.562;2022-08-19T06:29:15;19.60;99.90
48019;DHT22;33786;48.690;9.562;2022-08-19T06:31:51;19.70;99.90
48019;DHT22;33786;48.690;9.562;2022-08-19T06:34:18;19.70;99.90
48019;DHT22;33786;48.690;9.562;2022-08-19T06:36:47;19.70;99.90
48019;DHT22;33786;48.690;9.562;2022-08-19T06:39:15;19.60;99.90
48019;DHT22;33786;48.690;9.562;2022-08-19T06:41:43;19.60;99.90
48019;DHT22;33786;48.690;9.562;2022-08-19T06:44:18;19.60;99.90
48019;DHT22;33786;48.690;9.562;2022-08-19T06:46:45;19.70;99.90
48019;DHT22;33786;48.690;9.562;2022-08-19T06:49:20;19.70;99.90
48019;DHT22;33786;48.690;9.562;2022-08-19T06:51:48;19.70;99.90
48019;DHT22;33786;48.690;9.562;2022-08-19T06:54:18;19.60;99.90
48019;DHT22;33786;48.690;9.562;2022-08-19T06:56:45;19.60;99.90
48019;DHT22;33786;48.690;9.562;2022-08-19T06:59:14;19.60;99.90
48019;DHT22;33786;48.690;9.562;2022-08-19T07:01:42;19.50;99.90
48019;DHT22;33786;48.690;9.562;2022-08-19T07:04:13;19.60;99.90
48019;DHT22;33786;48.690;9.562;2022-08-19T07:06:41;19.60;99.90
48019;DHT22;33786;48.690;9.562;2022-08-19T07:09:10;19.60;99.90
48019;DHT22;33786;48.690;9.562;2022-08-19T07:11:37;19.60;99.90
48019;DHT22;33786;48.690;9.562;2022-08-19T07:14:05;19.60;99.90
48019;DHT22;33786;48.690;9.562;2022-08-19T07:16:45;19.60;99.90
48019;DHT22;33786;48.690;9.562;2022-08-19T07:19:12;19.60;99.90
48019;DHT22;33786;48.690;9.562;2022-08-19T07:21:41;19.60;99.90
48019;DHT22;33786;48.690;9.562;2022-08-19T07:24:08;19.70;99.90
48019;DHT22;33786;48.690;9.562;2022-08-19T07:26:40;19.70;99.90
48019;DHT22;33786;48.690;9.562;2022-08-19T07:29:08;19.70;99.90
48019;DHT22;33786;48.690;9.562;2022-08-19T07:31:35;19.70;99.90
48019;DHT22;33786;48.690;9.562;2022-08-19T07:34:06;19.70;99.90
48019;DHT22;33786;48.690;9.562;2022-08-19T07:36:35;19.60;99.90
48019;DHT22;33786;48.690;9.562;2022-08-19T07:39:03;19.60;99.90
48019;DHT22;33786;48.690;9.562;2022-08-19T07:41:30;19.70;99.90
48019;DHT22;33786;48.690;9.562;2022-08-19T07:43:59;19.60;99.90
48019;DHT22;33786;48.690;9.562;2022-08-19T07:46:30;19.60;99.90
48019;DHT22;33786;48.690;9.562;2022-08-19T07:48:57;19.60;99.90
48019;DHT22;33786;48.690;9.562;2022-08-19T07:51:24;19.60;99.90
48019;DHT22;33786;48.690;9.562;2022-08-19T07:54:02;19.70;99.90
48019;DHT22;33786;48.690;9.562;2022-08-19T07:56:29;19.60;99.90
48019;DHT22;33786;48.690;9.562;2022-08-19T07:58:56;19.60;99.90
48019;DHT22;33786;48.690;9.562;2022-08-19T08:01:24;19.60;99.90
48019;DHT22;33786;48.690;9.562;2022-08-19T08:03:52;19.50;99.90
48019;DHT22;33786;48.690;9.562;2022-08-19T08:06:37;19.60;99.90
48019;DHT22;33786;48.690;9.562;2022-08-19T08:09:24;19.60;99.90
48019;DHT22;33786;48.690;9.562;2022-08-19T08:11:53;19.60;99.90
48019;DHT22;33786;48.690;9.562;2022-08-19T08:14:25;19.60;99.90
48019;DHT22;33786;48.690;9.562;2022-08-19T08:17:01;19.60;99.90
48019;DHT22;33786;48.690;9.562;2022-08-19T08:19:36;19.60;99.90
48019;DHT22;33786;48.690;9.562;2022-08-19T08:22:03;19.60;99.90
48019;DHT22;33786;48.690;9.562;2022-08-19T08:24:33;19.70;99.90
48019;DHT22;33786;48.690;9.562;2022-08-19T08:27:02;19.70;99.90
48019;DHT22;33786;48.690;9.562;2022-08-19T08:29:36;19.70;99.90
48019;DHT22;33786;48.690;9.562;2022-08-19T08:32:04;19.60;99.90
48019;DHT22;33786;48.690;9.562;2022-08-19T08:34:40;19.70;99.90
48019;DHT22;33786;48.690;9.562;2022-08-19T08:37:07;19.70;99.90
48019;DHT22;33786;48.690;9.562;2022-08-19T08:39:34;19.80;99.90
48019;DHT22;33786;48.690;9.562;2022-08-19T08:42:09;19.80;99.90
48019;DHT22;33786;48.690;9.562;2022-08-19T08:44:46;19.80;99.90
48019;DHT22;33786;48.690;9.562;2022-08-19T08:47:18;19.80;99.90
48019;DHT22;33786;48.690;9.562;2022-08-19T08:49:48;19.80;99.90
48019;DHT22;33786;48.690;9.562;2022-08-19T08:52:34;19.80;99.90
48019;DHT22;33786;48.690;9.562;2022-08-19T08:55:15;19.80;99.90
48019;DHT22;33786;48.690;9.562;2022-08-19T09:00:18;19.80;99.90
48019;DHT22;33786;48.690;9.562;2022-08-19T09:02:46;19.90;99.90
48019;DHT22;33786;48.690;9.562;2022-08-19T09:05:16;19.90;99.90
48019;DHT22;33786;48.690;9.562;2022-08-19T09:15:32;20.00;99.90
48019;DHT22;33786;48.690;9.562;2022-08-19T09:18:02;19.90;99.90
48019;DHT22;33786;48.690;9.562;2022-08-19T09:20:32;20.00;99.90
48019;DHT22;33786;48.690;9.562;2022-08-19T09:22:59;20.00;99.90
48019;DHT22;33786;48.690;9.562;2022-08-19T09:25:26;20.00;99.90
48019;DHT22;33786;48.690;9.562;2022-08-19T09:27:55;19.80;99.90
48019;DHT22;33786;48.690;9.562;2022-08-19T09:30:32;19.90;99.90
48019;DHT22;33786;48.690;9.562;2022-08-19T09:32:59;19.80;99.90
48019;DHT22;33786;48.690;9.562;2022-08-19T09:35:27;19.80;99.90
48019;DHT22;33786;48.690;9.562;2022-08-19T09:37:55;19.60;99.90
48019;DHT22;33786;48.690;9.562;2022-08-19T09:40:26;19.80;99.90
48019;DHT22;33786;48.690;9.562;2022-08-19T09:42:56;19.80;99.90
48019;DHT22;33786;48.690;9.562;2022-08-19T09:45:24;19.90;99.90
48019;DHT22;33786;48.690;9.562;2022-08-19T09:47:51;19.90;99.90
48019;DHT22;33786;48.690;9.562;2022-08-19T09:50:20;20.00;99.90
48019;DHT22;33786;48.690;9.562;2022-08-19T09:52:47;20.00;99.90
48019;DHT22;33786;48.690;9.562;2022-08-19T09:55:22;20.10;99.90
48019;DHT22;33786;48.690;9.562;2022-08-19T09:57:49;20.10;99.90
48019;DHT22;33786;48.690;9.562;2022-08-19T10:00:16;20.10;99.90
48019;DHT22;33786;48.690;9.562;2022-08-19T10:02:43;20.10;99.90
48019;DHT22;33786;48.690;9.562;2022-08-19T10:05:11;20.20;99.90
48019;DHT22;33786;48.690;9.562;2022-08-19T10:07:56;20.10;99.90
48019;DHT22;33786;48.690;9.562;2022-08-19T10:10:23;20.10;99.90
48019;DHT22;33786;48.690;9.562;2022-08-19T10:12:50;20.00;99.90
48019;DHT22;33786;48.690;9.562;2022-08-19T10:15:18;19.90;99.90
48019;DHT22;33786;48.690;9.562;2022-08-19T10:17:55;20.00;99.90
48019;DHT22;33786;48.690;9.562;2022-08-19T10:20:24;20.10;99.90
48019;DHT22;33786;48.690;9.562;2022-08-19T10:22:51;20.10;99.90
48019;DHT22;33786;48.690;9.562;2022-08-19T10:25:18;20.10;99.90
48019;DHT22;33786;48.690;9.562;2022-08-19T10:27:45;20.20;99.90
48019;DHT22;33786;48.690;9.562;2022-08-19T10:30:21;20.20;99.90
48019;DHT22;33786;48.690;9.562;2022-08-19T10:32:50;20.20;99.90
48019;DHT22;33786;48.690;9.562;2022-08-19T10:35:18;20.20;99.90
48019;DHT22;33786;48.690;9.562;2022-08-19T10:37:47;20.40;99.90
48019;DHT22;33786;48.690;9.562;2022-08-19T10:40:23;20.40;99.90
48019;DHT22;33786;48.690;9.562;2022-08-19T10:42:50;20.50;99.90
48019;DHT22;33786;48.690;9.562;2022-08-19T10:45:16;20.60;99.90
48019;DHT22;33786;48.690;9.562;2022-08-19T10:47:43;20.70;99.90
48019;DHT22;33786;48.690;9.562;2022-08-19T10:50:10;20.50;99.90
48019;DHT22;33786;48.690;9.562;2022-08-19T10:52:55;20.60;99.90
48019;DHT22;33786;48.690;9.562;2022-08-19T10:55:23;20.50;99.90
48019;DHT22;33786;48.690;9.562;2022-08-19T10:58:18;20.50;99.90
48019;DHT22;33786;48.690;9.562;2022-08-19T11:00:52;20.40;99.90
48019;DHT22;33786;48.690;9.562;2022-08-19T11:03:20;20.50;99.90
48019;DHT22;33786;48.690;9.562;2022-08-19T11:05:47;20.40;99.90
48019;DHT22;33786;48.690;9.562;2022-08-19T11:08:15;20.40;99.90
48019;DHT22;33786;48.690;9.562;2022-08-19T11:10:53;20.40;99.90
48019;DHT22;33786;48.690;9.562;2022-08-19T11:13:23;20.30;99.90
48019;DHT22;33786;48.690;9.562;2022-08-19T11:16:03;20.30;99.90
48019;DHT22;33786;48.690;9.562;2022-08-19T11:18:34;20.20;99.90
48019;DHT22;33786;48.690;9.562;2022-08-19T11:21:09;20.20;99.90
48019;DHT22;33786;48.690;9.562;2022-08-19T11:23:36;20.10;99.90
48019;DHT22;33786;48.690;9.562;2022-08-19T11:26:03;20.10;99.90
48019;DHT22;33786;48.690;9.562;2022-08-19T11:28:30;20.10;99.90
48019;DHT22;33786;48.690;9.562;2022-08-19T11:30:57;20.20;99.90
48019;DHT22;33786;48.690;9.562;2022-08-19T11:33:23;20.20;99.90
48019;DHT22;33786;48.690;9.562;2022-08-19T11:35:52;20.10;99.90
48019;DHT22;33786;48.690;9.562;2022-08-19T11:38:20;20.10;99.90
48019;DHT22;33786;48.690;9.562;2022-08-19T11:40:53;20.10;99.90
48019;DHT22;33786;48.690;9.562;2022-08-19T11:43:19;20.20;99.90
48019;DHT22;33786;48.690;9.562;2022-08-19T11:45:46;20.20;99.90
48019;DHT22;33786;48.690;9.562;2022-08-19T11:48:15;20.30;99.90
48019;DHT22;33786;48.690;9.562;2022-08-19T11:50:41;20.20;99.90
48019;DHT22;33786;48.690;9.562;2022-08-19T11:53:09;20.20;99.90
48019;DHT22;33786;48.690;9.562;2022-08-19T11:55:37;20.30;99.90
48019;DHT22;33786;48.690;9.562;2022-08-19T11:58:09;20.30;99.90
48019;DHT22;33786;48.690;9.562;2022-08-19T12:00:44;20.30;99.90
48019;DHT22;33786;48.690;9.562;2022-08-19T12:03:12;20.20;99.90
48019;DHT22;33786;48.690;9.562;2022-08-19T12:05:39;20.20;99.90
48019;DHT22;33786;48.690;9.562;2022-08-19T12:08:06;20.20;99.90
48019;DHT22;33786;48.690;9.562;2022-08-19T12:10:33;20.10;99.90
48019;DHT22;33786;48.690;9.562;2022-08-19T12:13:00;20.10;99.90
48019;DHT22;33786;48.690;9.562;2022-08-19T12:15:27;20.00;99.90
48019;DHT22;33786;48.690;9.562;2022-08-19T12:18:03;20.00;99.90
48019;DHT22;33786;48.690;9.562;2022-08-19T12:20:30;20.00;99.90
48019;DHT22;33786;48.690;9.562;2022-08-19T12:23:02;20.10;99.90
48019;DHT22;33786;48.690;9.562;2022-08-19T12:25:28;20.20;99.90
48019;DHT22;33786;48.690;9.562;2022-08-19T12:27:55;20.10;99.90
48019;DHT22;33786;48.690;9.562;2022-08-19T12:30:23;20.10;99.90
48019;DHT22;33786;48.690;9.562;2022-08-19T12:32:50;20.20;99.90
48019;DHT22;33786;48.690;9.562;2022-08-19T12:35:17;20.20;99.90
48019;DHT22;33786;48.690;9.562;2022-08-19T12:37:47;20.20;99.90
48019;DHT22;33786;48.690;9.562;2022-08-19T12:40:23;20.20;99.90
48019;DHT22;33786;48.690;9.562;2022-08-19T12:42:52;20.20;99.90
48019;DHT22;33786;48.690;9.562;2022-08-19T12:45:19;20.20;99.90
48019;DHT22;33786;48.690;9.562;2022-08-19T12:47:46;20.00;99.90
48019;DHT22;33786;48.690;9.562;2022-08-19T12:50:15;20.00;99.90
48019;DHT22;33786;48.690;9.562;2022-08-19T12:52:42;19.90;99.90
48019;DHT22;33786;48.690;9.562;2022-08-19T12:55:09;19.80;99.90
48019;DHT22;33786;48.690;9.562;2022-08-19T12:57:37;19.80;99.90
48019;DHT22;33786;48.690;9.562;2022-08-19T13:00:14;19.60;99.90
48019;DHT22;33786;48.690;9.562;2022-08-19T13:02:43;19.60;99.90
48019;DHT22;33786;48.690;9.562;2022-08-19T13:05:14;19.60;99.90
48019;DHT22;33786;48.690;9.562;2022-08-19T13:07:42;19.60;99.90
48019;DHT22;33786;48.690;9.562;2022-08-19T13:10:13;19.60;99.90
48019;DHT22;33786;48.690;9.562;2022-08-19T13:12:42;19.60;99.90
48019;DHT22;33786;48.690;9.562;2022-08-19T13:15:09;19.70;99.90
48019;DHT22;33786;48.690;9.562;2022-08-19T13:17:37;19.60;99.90
48019;DHT22;33786;48.690;9.562;2022-08-19T13:20:05;19.60;99.90
48019;DHT22;33786;48.690;9.562;2022-08-19T13:22:34;19.60;99.90
48019;DHT22;33786;48.690;9.562;2022-08-19T13:25:03;19.60;99.90
48019;DHT22;33786;48.690;9.562;2022-08-19T13:27:29;19.70;99.90
48019;DHT22;33786;48.690;9.562;2022-08-19T13:29:56;19.70;99.90
48019;DHT22;33786;48.690;9.562;2022-08-19T13:32:42;19.60;99.90
48019;DHT22;33786;48.690;9.562;2022-08-19T13:35:27;19.70;99.90
48019;DHT22;33786;48.690;9.562;2022-08-19T13:37:54;19.70;99.90
48019;DHT22;33786;48.690;9.562;2022-08-19T13:40:22;19.70;99.90
48019;DHT22;33786;48.690;9.562;2022-08-19T13:42:51;19.70;99.90
48019;DHT22;33786;48.690;9.562;2022-08-19T13:45:19;19.70;99.90
48019;DHT22;33786;48.690;9.562;2022-08-19T13:47:47;19.80;99.90
48019;DHT22;33786;48.690;9.562;2022-08-19T13:50:15;19.80;99.90
48019;DHT22;33786;48.690;9.562;2022-08-19T13:52:42;19.80;99.90
48019;DHT22;33786;48.690;9.562;2022-08-19T13:55:10;19.60;99.90
48019;DHT22;33786;48.690;9.562;2022-08-19T13:57:37;19.80;99.90
48019;DHT22;33786;48.690;9.562;2022-08-19T14:00:08;19.70;99.90
48019;DHT22;33786;48.690;9.562;2022-08-19T14:02:38;19.80;99.90
48019;DHT22;33786;48.690;9.562;2022-08-19T14:05:07;19.80;99.90
48019;DHT22;33786;48.690;9.562;2022-08-19T14:07:35;19.80;99.90
48019;DHT22;33786;48.690;9.562;2022-08-19T14:10:03;19.80;99.90
48019;DHT22;33786;48.690;9.562;2022-08-19T14:12:30;19.80;99.90
48019;DHT22;33786;48.690;9.562;2022-08-19T14:14:58;19.80;99.90
48019;DHT22;33786;48.690;9.562;2022-08-19T14:17:25;19.80;99.90
48019;DHT22;33786;48.690;9.562;2022-08-19T14:19:58;19.80;99.90
48019;DHT22;33786;48.690;9.562;2022-08-19T14:22:37;19.80;99.90
48019;DHT22;33786;48.690;9.562;2022-08-19T14:25:04;19.70;99.90
48019;DHT22;33786;48.690;9.562;2022-08-19T14:27:35;19.80;99.90
48019;DHT22;33786;48.690;9.562;2022-08-19T14:30:02;19.70;99.90
48019;DHT22;33786;48.690;9.562;2022-08-19T14:32:29;19.70;99.90
48019;DHT22;33786;48.690;9.562;2022-08-19T14:34:56;19.80;99.90
48019;DHT22;33786;48.690;9.562;2022-08-19T14:37:23;19.90;99.90
48019;DHT22;33786;48.690;9.562;2022-08-19T14:39:50;20.00;99.90
48019;DHT22;33786;48.690;9.562;2022-08-19T14:42:17;20.00;99.90
48019;DHT22;33786;48.690;9.562;2022-08-19T14:44:44;20.10;99.90
48019;DHT22;33786;48.690;9.562;2022-08-19T14:47:11;20.20;99.90
48019;DHT22;33786;48.690;9.562;2022-08-19T14:49:37;20.30;99.90
48019;DHT22;33786;48.690;9.562;2022-08-19T14:52:10;20.30;99.90
48019;DHT22;33786;48.690;9.562;2022-08-19T14:54:36;20.40;99.90
48019;DHT22;33786;48.690;9.562;2022-08-19T14:57:03;20.50;99.90
48019;DHT22;33786;48.690;9.562;2022-08-19T14:59:30;20.50;99.90
48019;DHT22;33786;48.690;9.562;2022-08-19T15:01:57;20.60;99.90
48019;DHT22;33786;48.690;9.562;2022-08-19T15:04:45;20.60;99.90
48019;DHT22;33786;48.690;9.562;2022-08-19T15:07:23;20.70;99.90
48019;DHT22;33786;48.690;9.562;2022-08-19T15:09:55;20.90;99.90
48019;DHT22;33786;48.690;9.562;2022-08-19T15:12:21;20.90;99.90
48019;DHT22;33786;48.690;9.562;2022-08-19T15:14:49;20.90;99.90
48019;DHT22;33786;48.690;9.562;2022-08-19T15:17:22;20.90;99.90
48019;DHT22;33786;48.690;9.562;2022-08-19T15:20:09;20.90;99.90
48019;DHT22;33786;48.690;9.562;2022-08-19T15:22:36;20.90;99.90
48019;DHT22;33786;48.690;9.562;2022-08-19T15:25:04;20.80;99.90
48019;DHT22;33786;48.690;9.562;2022-08-19T15:27:31;20.70;99.90
48019;DHT22;33786;48.690;9.562;2022-08-19T15:29:58;20.60;99.90
48019;DHT22;33786;48.690;9.562;2022-08-19T15:32:27;20.50;99.90
48019;DHT22;33786;48.690;9.562;2022-08-19T15:34:56;20.40;99.90
48019;DHT22;33786;48.690;9.562;2022-08-19T15:37:23;20.30;99.90
48019;DHT22;33786;48.690;9.562;2022-08-19T15:39:50;20.30;99.90
48019;DHT22;33786;48.690;9.562;2022-08-19T15:42:17;20.30;99.90
48019;DHT22;33786;48.690;9.562;2022-08-19T15:44:55;20.20;99.90
48019;DHT22;33786;48.690;9.562;2022-08-19T15:47:27;20.30;99.90
48019;DHT22;33786;48.690;9.562;2022-08-19T15:50:19;20.40;99.90
48019;DHT22;33786;48.690;9.562;2022-08-19T15:52:47;20.40;99.90
48019;DHT22;33786;48.690;9.562;2022-08-19T15:55:19;20.50;99.90
48019;DHT22;33786;48.690;9.562;2022-08-19T15:58:09;20.50;99.90
48019;DHT22;33786;48.690;9.562;2022-08-19T16:00:59;20.60;99.90
48019;DHT22;33786;48.690;9.562;2022-08-19T16:03:50;20.60;99.90